Hlavní strana
METAR-TAF:

METAR-TAF

Letiště :

Stokmarknes, Norsko

zeměpisná šířka: 68-35N, zeměpisná délka: 015-01E, výška: 0 m

Aktuální stav počasí

Zpráva byla vytvořena před 31 minutami, v 07:50 UTC
Východní vítr 5 kt
Teplota 11°C
Vlhkost vzduchu 50%
Tlak 1019 hPa
Viditelnost 10 km a více
Žádná oblačnost pod 1500 m, nevyskytují se cumulonimby.

METAR: ENSK 260750Z 08005KT CAVOK 11/01 Q1019

Čas: 10:21 (08:21 UTC)


TAF: chybějící

Stav a předpovědi počasí z více než 4 000 letišť (zprávy METAR a TAF).

Červené a žluté tečky na mapě představují dostupné meteorologické stanice.

Když kurzor umístíte na tečku, zobrazí se název stanice.

Pak kliknutím zobrazíte stav a předpověď počasí.

Chcete-li změnit mapu, kliknutím na zelené tlačítko se znaménkem +mapu přiblížíte, kliknutím na zelené tlačítko se znaménkem – mapu oddálíte a kliknutím na zelené šipky přejdete na sousední mapy.


METAR-TAF: